sensor_id;sensor_type;location;lat;lon;timestamp;P1;durP1;ratioP1;P2;durP2;ratioP2
7813;SDS011;3952;48.364;16.022;2024-01-15T00:00:49;27.50;;;13.37;;
7813;SDS011;3952;48.364;16.022;2024-01-15T00:03:16;27.37;;;13.57;;
7813;SDS011;3952;48.364;16.022;2024-01-15T00:05:43;27.27;;;14.00;;
7813;SDS011;3952;48.364;16.022;2024-01-15T00:08:10;23.67;;;13.30;;
7813;SDS011;3952;48.364;16.022;2024-01-15T00:10:38;23.50;;;12.87;;
7813;SDS011;3952;48.364;16.022;2024-01-15T00:13:06;24.57;;;14.17;;
7813;SDS011;3952;48.364;16.022;2024-01-15T00:15:33;26.77;;;13.43;;
7813;SDS011;3952;48.364;16.022;2024-01-15T00:18:02;26.43;;;14.37;;
7813;SDS011;3952;48.364;16.022;2024-01-15T00:20:30;25.27;;;13.30;;
7813;SDS011;3952;48.364;16.022;2024-01-15T00:22:57;28.87;;;14.07;;
7813;SDS011;3952;48.364;16.022;2024-01-15T00:25:24;25.73;;;13.20;;
7813;SDS011;3952;48.364;16.022;2024-01-15T00:27:51;21.77;;;13.70;;
7813;SDS011;3952;48.364;16.022;2024-01-15T00:30:19;23.47;;;13.30;;
7813;SDS011;3952;48.364;16.022;2024-01-15T00:32:46;23.83;;;13.17;;
7813;SDS011;3952;48.364;16.022;2024-01-15T00:35:15;25.60;;;13.97;;
7813;SDS011;3952;48.364;16.022;2024-01-15T00:37:42;22.53;;;13.27;;
7813;SDS011;3952;48.364;16.022;2024-01-15T00:40:09;21.83;;;13.67;;
7813;SDS011;3952;48.364;16.022;2024-01-15T00:42:37;22.70;;;13.53;;
7813;SDS011;3952;48.364;16.022;2024-01-15T00:45:04;27.70;;;14.57;;
7813;SDS011;3952;48.364;16.022;2024-01-15T00:47:33;33.00;;;15.27;;
7813;SDS011;3952;48.364;16.022;2024-01-15T00:50:00;27.90;;;14.47;;
7813;SDS011;3952;48.364;16.022;2024-01-15T00:52:29;22.40;;;13.83;;
7813;SDS011;3952;48.364;16.022;2024-01-15T00:54:57;28.00;;;14.30;;
7813;SDS011;3952;48.364;16.022;2024-01-15T00:57:24;27.13;;;14.60;;
7813;SDS011;3952;48.364;16.022;2024-01-15T00:59:51;27.10;;;14.47;;
7813;SDS011;3952;48.364;16.022;2024-01-15T01:02:19;30.47;;;14.30;;
7813;SDS011;3952;48.364;16.022;2024-01-15T01:04:47;28.20;;;14.40;;
7813;SDS011;3952;48.364;16.022;2024-01-15T01:07:14;28.97;;;14.70;;
7813;SDS011;3952;48.364;16.022;2024-01-15T01:09:43;28.50;;;15.33;;
7813;SDS011;3952;48.364;16.022;2024-01-15T01:12:10;24.93;;;14.63;;
7813;SDS011;3952;48.364;16.022;2024-01-15T01:14:38;30.17;;;14.80;;
7813;SDS011;3952;48.364;16.022;2024-01-15T01:17:05;25.97;;;14.37;;
7813;SDS011;3952;48.364;16.022;2024-01-15T01:19:32;24.97;;;14.07;;
7813;SDS011;3952;48.364;16.022;2024-01-15T01:22:00;28.63;;;13.93;;
7813;SDS011;3952;48.364;16.022;2024-01-15T01:24:27;27.50;;;13.93;;
7813;SDS011;3952;48.364;16.022;2024-01-15T01:26:55;25.00;;;13.43;;
7813;SDS011;3952;48.364;16.022;2024-01-15T01:29:23;28.03;;;14.70;;
7813;SDS011;3952;48.364;16.022;2024-01-15T01:31:51;22.87;;;13.77;;
7813;SDS011;3952;48.364;16.022;2024-01-15T01:34:18;26.07;;;14.10;;
7813;SDS011;3952;48.364;16.022;2024-01-15T01:36:46;24.00;;;14.20;;
7813;SDS011;3952;48.364;16.022;2024-01-15T01:39:13;24.27;;;13.60;;
7813;SDS011;3952;48.364;16.022;2024-01-15T01:41:40;31.47;;;15.50;;
7813;SDS011;3952;48.364;16.022;2024-01-15T01:44:09;25.20;;;14.43;;
7813;SDS011;3952;48.364;16.022;2024-01-15T01:46:36;25.27;;;14.47;;
7813;SDS011;3952;48.364;16.022;2024-01-15T01:49:06;25.00;;;13.80;;
7813;SDS011;3952;48.364;16.022;2024-01-15T01:51:34;22.87;;;13.10;;
7813;SDS011;3952;48.364;16.022;2024-01-15T01:54:03;29.23;;;13.97;;
7813;SDS011;3952;48.364;16.022;2024-01-15T01:56:32;24.57;;;13.70;;
7813;SDS011;3952;48.364;16.022;2024-01-15T01:59:00;32.93;;;15.07;;
7813;SDS011;3952;48.364;16.022;2024-01-15T02:01:30;24.03;;;13.43;;
7813;SDS011;3952;48.364;16.022;2024-01-15T02:03:57;29.60;;;14.33;;
7813;SDS011;3952;48.364;16.022;2024-01-15T02:06:25;27.33;;;14.47;;
7813;SDS011;3952;48.364;16.022;2024-01-15T02:08:53;27.17;;;14.07;;
7813;SDS011;3952;48.364;16.022;2024-01-15T02:11:20;25.47;;;13.70;;
7813;SDS011;3952;48.364;16.022;2024-01-15T02:13:48;25.63;;;14.23;;
7813;SDS011;3952;48.364;16.022;2024-01-15T02:16:15;24.80;;;13.80;;
7813;SDS011;3952;48.364;16.022;2024-01-15T02:18:44;26.67;;;14.10;;
7813;SDS011;3952;48.364;16.022;2024-01-15T02:21:12;26.87;;;14.40;;
7813;SDS011;3952;48.364;16.022;2024-01-15T02:23:41;23.20;;;13.57;;
7813;SDS011;3952;48.364;16.022;2024-01-15T02:26:08;30.17;;;14.47;;
7813;SDS011;3952;48.364;16.022;2024-01-15T02:28:36;25.80;;;14.10;;
7813;SDS011;3952;48.364;16.022;2024-01-15T02:31:03;28.07;;;14.87;;
7813;SDS011;3952;48.364;16.022;2024-01-15T02:33:30;26.33;;;13.53;;
7813;SDS011;3952;48.364;16.022;2024-01-15T02:35:58;26.37;;;14.60;;
7813;SDS011;3952;48.364;16.022;2024-01-15T02:38:25;29.13;;;15.63;;
7813;SDS011;3952;48.364;16.022;2024-01-15T02:40:53;28.57;;;15.00;;
7813;SDS011;3952;48.364;16.022;2024-01-15T02:43:21;25.70;;;14.40;;
7813;SDS011;3952;48.364;16.022;2024-01-15T02:45:48;28.20;;;14.57;;
7813;SDS011;3952;48.364;16.022;2024-01-15T02:48:14;28.63;;;15.47;;
7813;SDS011;3952;48.364;16.022;2024-01-15T02:50:42;30.33;;;16.00;;
7813;SDS011;3952;48.364;16.022;2024-01-15T02:53:09;31.60;;;15.33;;
7813;SDS011;3952;48.364;16.022;2024-01-15T02:55:36;31.23;;;15.33;;
7813;SDS011;3952;48.364;16.022;2024-01-15T02:58:05;26.53;;;14.47;;
7813;SDS011;3952;48.364;16.022;2024-01-15T03:00:32;26.70;;;14.83;;
7813;SDS011;3952;48.364;16.022;2024-01-15T03:02:59;30.87;;;15.17;;
7813;SDS011;3952;48.364;16.022;2024-01-15T03:05:27;33.73;;;14.87;;
7813;SDS011;3952;48.364;16.022;2024-01-15T03:07:54;29.77;;;14.27;;
7813;SDS011;3952;48.364;16.022;2024-01-15T03:10:21;29.20;;;15.37;;
7813;SDS011;3952;48.364;16.022;2024-01-15T03:12:48;28.43;;;15.20;;
7813;SDS011;3952;48.364;16.022;2024-01-15T03:15:17;24.50;;;14.10;;
7813;SDS011;3952;48.364;16.022;2024-01-15T03:17:45;28.70;;;14.60;;
7813;SDS011;3952;48.364;16.022;2024-01-15T03:20:12;23.40;;;13.07;;
7813;SDS011;3952;48.364;16.022;2024-01-15T03:22:39;30.53;;;15.10;;
7813;SDS011;3952;48.364;16.022;2024-01-15T03:25:07;27.17;;;14.30;;
7813;SDS011;3952;48.364;16.022;2024-01-15T03:27:34;24.73;;;14.07;;
7813;SDS011;3952;48.364;16.022;2024-01-15T03:30:01;25.37;;;13.70;;
7813;SDS011;3952;48.364;16.022;2024-01-15T03:32:30;26.93;;;14.27;;
7813;SDS011;3952;48.364;16.022;2024-01-15T03:34:58;26.27;;;13.57;;
7813;SDS011;3952;48.364;16.022;2024-01-15T03:37:25;27.70;;;13.47;;
7813;SDS011;3952;48.364;16.022;2024-01-15T03:39:52;21.27;;;12.83;;
7813;SDS011;3952;48.364;16.022;2024-01-15T03:42:20;27.97;;;13.67;;
7813;SDS011;3952;48.364;16.022;2024-01-15T03:44:47;28.07;;;14.60;;
7813;SDS011;3952;48.364;16.022;2024-01-15T03:47:14;31.83;;;15.13;;
7813;SDS011;3952;48.364;16.022;2024-01-15T03:49:43;31.30;;;14.93;;
7813;SDS011;3952;48.364;16.022;2024-01-15T03:52:10;28.60;;;14.43;;
7813;SDS011;3952;48.364;16.022;2024-01-15T03:54:37;25.43;;;14.03;;
7813;SDS011;3952;48.364;16.022;2024-01-15T03:57:05;24.83;;;13.73;;
7813;SDS011;3952;48.364;16.022;2024-01-15T03:59:32;27.07;;;14.30;;
7813;SDS011;3952;48.364;16.022;2024-01-15T04:01:59;29.17;;;14.33;;
7813;SDS011;3952;48.364;16.022;2024-01-15T04:04:26;27.97;;;14.70;;
7813;SDS011;3952;48.364;16.022;2024-01-15T04:06:55;28.60;;;14.83;;
7813;SDS011;3952;48.364;16.022;2024-01-15T04:09:22;31.83;;;15.57;;
7813;SDS011;3952;48.364;16.022;2024-01-15T04:11:50;30.13;;;14.97;;
7813;SDS011;3952;48.364;16.022;2024-01-15T04:14:17;33.43;;;15.60;;
7813;SDS011;3952;48.364;16.022;2024-01-15T04:16:44;27.93;;;14.43;;
7813;SDS011;3952;48.364;16.022;2024-01-15T04:19:12;27.37;;;14.33;;
7813;SDS011;3952;48.364;16.022;2024-01-15T04:21:39;34.77;;;14.83;;
7813;SDS011;3952;48.364;16.022;2024-01-15T04:24:08;30.50;;;15.57;;
7813;SDS011;3952;48.364;16.022;2024-01-15T04:26:35;32.37;;;14.93;;
7813;SDS011;3952;48.364;16.022;2024-01-15T04:29:02;33.07;;;15.40;;
7813;SDS011;3952;48.364;16.022;2024-01-15T04:31:29;29.53;;;15.70;;
7813;SDS011;3952;48.364;16.022;2024-01-15T04:33:57;29.90;;;16.23;;
7813;SDS011;3952;48.364;16.022;2024-01-15T04:36:24;32.40;;;14.40;;
7813;SDS011;3952;48.364;16.022;2024-01-15T04:38:51;29.37;;;15.03;;
7813;SDS011;3952;48.364;16.022;2024-01-15T04:41:20;25.93;;;14.73;;
7813;SDS011;3952;48.364;16.022;2024-01-15T04:43:47;29.60;;;14.13;;
7813;SDS011;3952;48.364;16.022;2024-01-15T04:46:14;26.23;;;14.13;;
7813;SDS011;3952;48.364;16.022;2024-01-15T04:48:42;22.20;;;13.23;;
7813;SDS011;3952;48.364;16.022;2024-01-15T04:51:09;22.20;;;12.43;;
7813;SDS011;3952;48.364;16.022;2024-01-15T04:53:36;24.80;;;12.20;;
7813;SDS011;3952;48.364;16.022;2024-01-15T04:56:04;20.33;;;11.67;;
7813;SDS011;3952;48.364;16.022;2024-01-15T04:58:33;19.27;;;12.57;;
7813;SDS011;3952;48.364;16.022;2024-01-15T05:01:00;18.20;;;12.13;;
7813;SDS011;3952;48.364;16.022;2024-01-15T05:03:29;23.40;;;12.47;;
7813;SDS011;3952;48.364;16.022;2024-01-15T05:05:56;19.47;;;12.63;;
7813;SDS011;3952;48.364;16.022;2024-01-15T05:08:23;23.23;;;12.40;;
7813;SDS011;3952;48.364;16.022;2024-01-15T05:10:50;17.73;;;11.70;;
7813;SDS011;3952;48.364;16.022;2024-01-15T05:13:18;20.23;;;11.83;;
7813;SDS011;3952;48.364;16.022;2024-01-15T05:15:46;19.87;;;12.07;;
7813;SDS011;3952;48.364;16.022;2024-01-15T05:18:14;20.10;;;12.57;;
7813;SDS011;3952;48.364;16.022;2024-01-15T05:20:41;18.47;;;11.93;;
7813;SDS011;3952;48.364;16.022;2024-01-15T05:23:08;24.80;;;13.43;;
7813;SDS011;3952;48.364;16.022;2024-01-15T05:25:36;19.97;;;12.37;;
7813;SDS011;3952;48.364;16.022;2024-01-15T05:28:03;21.40;;;13.20;;
7813;SDS011;3952;48.364;16.022;2024-01-15T05:30:31;21.13;;;13.03;;
7813;SDS011;3952;48.364;16.022;2024-01-15T05:33:00;20.27;;;12.77;;
7813;SDS011;3952;48.364;16.022;2024-01-15T05:35:28;24.57;;;13.23;;
7813;SDS011;3952;48.364;16.022;2024-01-15T05:37:55;28.53;;;14.00;;
7813;SDS011;3952;48.364;16.022;2024-01-15T05:40:22;22.80;;;12.60;;
7813;SDS011;3952;48.364;16.022;2024-01-15T05:42:49;21.60;;;12.93;;
7813;SDS011;3952;48.364;16.022;2024-01-15T05:45:17;24.13;;;13.43;;
7813;SDS011;3952;48.364;16.022;2024-01-15T05:47:44;22.07;;;12.27;;
7813;SDS011;3952;48.364;16.022;2024-01-15T05:50:13;20.73;;;13.03;;
7813;SDS011;3952;48.364;16.022;2024-01-15T05:52:40;21.97;;;12.73;;
7813;SDS011;3952;48.364;16.022;2024-01-15T05:55:07;19.63;;;12.87;;
7813;SDS011;3952;48.364;16.022;2024-01-15T05:57:35;21.80;;;13.27;;
7813;SDS011;3952;48.364;16.022;2024-01-15T06:00:03;20.60;;;12.20;;
7813;SDS011;3952;48.364;16.022;2024-01-15T06:02:31;20.07;;;12.67;;
7813;SDS011;3952;48.364;16.022;2024-01-15T06:04:59;18.10;;;12.20;;
7813;SDS011;3952;48.364;16.022;2024-01-15T06:07:29;24.50;;;13.37;;
7813;SDS011;3952;48.364;16.022;2024-01-15T06:09:56;21.07;;;12.63;;
7813;SDS011;3952;48.364;16.022;2024-01-15T06:12:24;20.17;;;12.33;;
7813;SDS011;3952;48.364;16.022;2024-01-15T06:14:53;22.77;;;12.63;;
7813;SDS011;3952;48.364;16.022;2024-01-15T06:17:20;20.50;;;12.13;;
7813;SDS011;3952;48.364;16.022;2024-01-15T06:19:47;24.30;;;12.63;;
7813;SDS011;3952;48.364;16.022;2024-01-15T06:22:14;19.40;;;12.13;;
7813;SDS011;3952;48.364;16.022;2024-01-15T06:24:43;20.77;;;11.70;;
7813;SDS011;3952;48.364;16.022;2024-01-15T06:27:10;19.63;;;12.00;;
7813;SDS011;3952;48.364;16.022;2024-01-15T06:29:38;19.60;;;12.60;;
7813;SDS011;3952;48.364;16.022;2024-01-15T06:32:05;23.83;;;12.23;;
7813;SDS011;3952;48.364;16.022;2024-01-15T06:34:32;19.40;;;11.83;;
7813;SDS011;3952;48.364;16.022;2024-01-15T06:36:59;20.27;;;12.30;;
7813;SDS011;3952;48.364;16.022;2024-01-15T06:39:27;21.90;;;12.57;;
7813;SDS011;3952;48.364;16.022;2024-01-15T06:41:56;20.37;;;12.47;;
7813;SDS011;3952;48.364;16.022;2024-01-15T06:44:23;23.30;;;13.40;;
7813;SDS011;3952;48.364;16.022;2024-01-15T06:46:50;21.07;;;12.73;;
7813;SDS011;3952;48.364;16.022;2024-01-15T06:49:22;23.53;;;13.83;;
7813;SDS011;3952;48.364;16.022;2024-01-15T06:51:49;24.00;;;12.93;;
7813;SDS011;3952;48.364;16.022;2024-01-15T06:54:17;19.77;;;12.40;;
7813;SDS011;3952;48.364;16.022;2024-01-15T06:56:44;22.07;;;12.53;;
7813;SDS011;3952;48.364;16.022;2024-01-15T06:59:13;21.57;;;12.10;;
7813;SDS011;3952;48.364;16.022;2024-01-15T07:01:40;20.57;;;13.33;;
7813;SDS011;3952;48.364;16.022;2024-01-15T07:04:08;20.07;;;12.80;;
7813;SDS011;3952;48.364;16.022;2024-01-15T07:06:35;20.40;;;12.20;;
7813;SDS011;3952;48.364;16.022;2024-01-15T07:09:02;20.60;;;12.87;;
7813;SDS011;3952;48.364;16.022;2024-01-15T07:11:30;22.67;;;13.10;;
7813;SDS011;3952;48.364;16.022;2024-01-15T07:13:57;22.13;;;13.47;;
7813;SDS011;3952;48.364;16.022;2024-01-15T07:16:26;25.17;;;13.10;;
7813;SDS011;3952;48.364;16.022;2024-01-15T07:18:53;20.93;;;12.50;;
7813;SDS011;3952;48.364;16.022;2024-01-15T07:21:21;19.53;;;12.10;;
7813;SDS011;3952;48.364;16.022;2024-01-15T07:23:48;19.50;;;12.50;;
7813;SDS011;3952;48.364;16.022;2024-01-15T07:26:15;20.13;;;12.97;;
7813;SDS011;3952;48.364;16.022;2024-01-15T07:28:43;22.00;;;13.00;;
7813;SDS011;3952;48.364;16.022;2024-01-15T07:31:10;21.20;;;12.80;;
7813;SDS011;3952;48.364;16.022;2024-01-15T07:33:39;19.63;;;11.83;;
7813;SDS011;3952;48.364;16.022;2024-01-15T07:36:07;23.17;;;13.33;;
7813;SDS011;3952;48.364;16.022;2024-01-15T07:38:34;19.00;;;11.87;;
7813;SDS011;3952;48.364;16.022;2024-01-15T07:41:02;20.43;;;12.03;;
7813;SDS011;3952;48.364;16.022;2024-01-15T07:43:30;19.70;;;12.27;;
7813;SDS011;3952;48.364;16.022;2024-01-15T07:45:57;18.87;;;12.30;;
7813;SDS011;3952;48.364;16.022;2024-01-15T07:48:24;18.37;;;10.73;;
7813;SDS011;3952;48.364;16.022;2024-01-15T07:50:54;19.27;;;12.43;;
7813;SDS011;3952;48.364;16.022;2024-01-15T07:53:21;18.27;;;10.60;;
7813;SDS011;3952;48.364;16.022;2024-01-15T07:55:48;18.30;;;11.03;;
7813;SDS011;3952;48.364;16.022;2024-01-15T07:58:16;15.57;;;10.00;;
7813;SDS011;3952;48.364;16.022;2024-01-15T08:00:43;13.90;;;9.67;;
7813;SDS011;3952;48.364;16.022;2024-01-15T08:03:10;14.67;;;9.80;;
7813;SDS011;3952;48.364;16.022;2024-01-15T08:05:38;14.27;;;10.20;;
7813;SDS011;3952;48.364;16.022;2024-01-15T08:08:06;11.90;;;9.03;;
7813;SDS011;3952;48.364;16.022;2024-01-15T08:10:34;15.37;;;9.40;;
7813;SDS011;3952;48.364;16.022;2024-01-15T08:13:01;11.37;;;9.37;;
7813;SDS011;3952;48.364;16.022;2024-01-15T08:15:28;13.33;;;9.43;;
7813;SDS011;3952;48.364;16.022;2024-01-15T08:17:56;12.50;;;8.87;;
7813;SDS011;3952;48.364;16.022;2024-01-15T08:20:23;12.57;;;9.47;;
7813;SDS011;3952;48.364;16.022;2024-01-15T08:22:51;11.27;;;8.97;;
7813;SDS011;3952;48.364;16.022;2024-01-15T08:25:19;9.80;;;8.20;;
7813;SDS011;3952;48.364;16.022;2024-01-15T08:27:46;11.60;;;7.77;;
7813;SDS011;3952;48.364;16.022;2024-01-15T08:30:14;12.63;;;8.37;;
7813;SDS011;3952;48.364;16.022;2024-01-15T08:32:41;12.20;;;8.90;;
7813;SDS011;3952;48.364;16.022;2024-01-15T08:35:09;9.60;;;8.03;;
7813;SDS011;3952;48.364;16.022;2024-01-15T08:37:36;8.80;;;7.90;;
7813;SDS011;3952;48.364;16.022;2024-01-15T08:40:04;10.90;;;8.53;;
7813;SDS011;3952;48.364;16.022;2024-01-15T08:42:34;12.47;;;9.70;;
7813;SDS011;3952;48.364;16.022;2024-01-15T08:45:01;11.40;;;10.20;;
7813;SDS011;3952;48.364;16.022;2024-01-15T08:47:29;13.17;;;11.77;;
7813;SDS011;3952;48.364;16.022;2024-01-15T08:49:56;11.70;;;9.13;;
7813;SDS011;3952;48.364;16.022;2024-01-15T08:52:24;10.20;;;9.23;;
7813;SDS011;3952;48.364;16.022;2024-01-15T08:54:51;10.73;;;9.63;;
7813;SDS011;3952;48.364;16.022;2024-01-15T08:57:18;9.73;;;8.67;;
7813;SDS011;3952;48.364;16.022;2024-01-15T08:59:48;11.60;;;8.97;;
7813;SDS011;3952;48.364;16.022;2024-01-15T09:02:16;9.50;;;8.50;;
7813;SDS011;3952;48.364;16.022;2024-01-15T09:04:43;9.93;;;8.93;;
7813;SDS011;3952;48.364;16.022;2024-01-15T09:07:10;8.87;;;8.03;;
7813;SDS011;3952;48.364;16.022;2024-01-15T09:09:38;11.83;;;8.67;;
7813;SDS011;3952;48.364;16.022;2024-01-15T09:12:07;10.03;;;8.17;;
7813;SDS011;3952;48.364;16.022;2024-01-15T09:14:35;9.27;;;8.43;;
7813;SDS011;3952;48.364;16.022;2024-01-15T09:17:05;9.40;;;7.90;;
7813;SDS011;3952;48.364;16.022;2024-01-15T09:19:32;8.77;;;7.67;;
7813;SDS011;3952;48.364;16.022;2024-01-15T09:21:59;8.30;;;7.40;;
7813;SDS011;3952;48.364;16.022;2024-01-15T09:24:26;9.60;;;8.60;;
7813;SDS011;3952;48.364;16.022;2024-01-15T09:26:54;9.90;;;8.37;;
7813;SDS011;3952;48.364;16.022;2024-01-15T09:29:21;8.50;;;7.70;;
7813;SDS011;3952;48.364;16.022;2024-01-15T09:31:49;9.60;;;8.37;;
7813;SDS011;3952;48.364;16.022;2024-01-15T09:34:18;8.87;;;8.00;;
7813;SDS011;3952;48.364;16.022;2024-01-15T09:36:45;9.30;;;8.40;;
7813;SDS011;3952;48.364;16.022;2024-01-15T09:39:13;9.20;;;7.60;;
7813;SDS011;3952;48.364;16.022;2024-01-15T09:41:41;8.60;;;7.70;;
7813;SDS011;3952;48.364;16.022;2024-01-15T09:44:09;11.30;;;7.97;;
7813;SDS011;3952;48.364;16.022;2024-01-15T09:46:38;7.57;;;6.87;;
7813;SDS011;3952;48.364;16.022;2024-01-15T09:49:06;7.90;;;7.10;;
7813;SDS011;3952;48.364;16.022;2024-01-15T09:51:35;7.93;;;6.67;;
7813;SDS011;3952;48.364;16.022;2024-01-15T09:54:03;7.27;;;6.57;;
7813;SDS011;3952;48.364;16.022;2024-01-15T09:56:30;7.87;;;6.50;;
7813;SDS011;3952;48.364;16.022;2024-01-15T09:58:58;9.00;;;6.33;;
7813;SDS011;3952;48.364;16.022;2024-01-15T10:01:26;6.70;;;6.10;;
7813;SDS011;3952;48.364;16.022;2024-01-15T10:03:54;7.53;;;6.67;;
7813;SDS011;3952;48.364;16.022;2024-01-15T10:06:22;7.47;;;6.47;;
7813;SDS011;3952;48.364;16.022;2024-01-15T10:08:51;7.80;;;6.43;;
7813;SDS011;3952;48.364;16.022;2024-01-15T10:11:19;9.03;;;6.23;;
7813;SDS011;3952;48.364;16.022;2024-01-15T10:13:46;6.83;;;6.23;;
7813;SDS011;3952;48.364;16.022;2024-01-15T10:16:17;7.33;;;6.57;;
7813;SDS011;3952;48.364;16.022;2024-01-15T10:18:44;7.70;;;6.90;;
7813;SDS011;3952;48.364;16.022;2024-01-15T10:21:11;10.33;;;9.33;;
7813;SDS011;3952;48.364;16.022;2024-01-15T10:23:40;9.43;;;8.27;;
7813;SDS011;3952;48.364;16.022;2024-01-15T10:26:09;7.67;;;6.80;;
7813;SDS011;3952;48.364;16.022;2024-01-15T10:28:37;7.83;;;7.03;;
7813;SDS011;3952;48.364;16.022;2024-01-15T10:31:04;7.20;;;6.60;;
7813;SDS011;3952;48.364;16.022;2024-01-15T10:33:32;8.07;;;6.07;;
7813;SDS011;3952;48.364;16.022;2024-01-15T10:36:00;6.93;;;6.03;;
7813;SDS011;3952;48.364;16.022;2024-01-15T10:38:27;7.10;;;6.40;;
7813;SDS011;3952;48.364;16.022;2024-01-15T10:40:55;10.40;;;6.33;;
7813;SDS011;3952;48.364;16.022;2024-01-15T10:43:24;6.17;;;5.57;;
7813;SDS011;3952;48.364;16.022;2024-01-15T10:45:51;7.00;;;6.00;;
7813;SDS011;3952;48.364;16.022;2024-01-15T10:48:18;6.13;;;5.63;;
7813;SDS011;3952;48.364;16.022;2024-01-15T10:50:46;6.67;;;6.07;;
7813;SDS011;3952;48.364;16.022;2024-01-15T10:53:15;6.33;;;5.03;;
7813;SDS011;3952;48.364;16.022;2024-01-15T10:55:43;6.60;;;5.90;;
7813;SDS011;3952;48.364;16.022;2024-01-15T10:58:13;6.80;;;6.20;;
7813;SDS011;3952;48.364;16.022;2024-01-15T11:00:44;8.43;;;7.57;;
7813;SDS011;3952;48.364;16.022;2024-01-15T11:03:11;7.97;;;7.27;;
7813;SDS011;3952;48.364;16.022;2024-01-15T11:05:41;9.20;;;7.77;;
7813;SDS011;3952;48.364;16.022;2024-01-15T11:08:09;8.03;;;7.23;;
7813;SDS011;3952;48.364;16.022;2024-01-15T11:10:37;9.13;;;8.10;;
7813;SDS011;3952;48.364;16.022;2024-01-15T11:13:15;7.13;;;6.43;;
7813;SDS011;3952;48.364;16.022;2024-01-15T11:15:57;8.17;;;7.47;;
7813;SDS011;3952;48.364;16.022;2024-01-15T11:18:26;8.30;;;7.43;;
7813;SDS011;3952;48.364;16.022;2024-01-15T11:23:53;11.80;;;9.70;;
7813;SDS011;3952;48.364;16.022;2024-01-15T11:26:33;15.73;;;10.37;;
7813;SDS011;3952;48.364;16.022;2024-01-15T11:29:03;8.93;;;8.03;;
7813;SDS011;3952;48.364;16.022;2024-01-15T11:40:39;7.90;;;7.10;;
7813;SDS011;3952;48.364;16.022;2024-01-15T11:43:08;8.57;;;7.33;;
7813;SDS011;3952;48.364;16.022;2024-01-15T11:45:35;8.27;;;7.53;;
7813;SDS011;3952;48.364;16.022;2024-01-15T11:48:12;11.00;;;8.50;;
7813;SDS011;3952;48.364;16.022;2024-01-15T11:50:40;7.27;;;6.57;;
7813;SDS011;3952;48.364;16.022;2024-01-15T11:53:14;7.13;;;6.43;;
7813;SDS011;3952;48.364;16.022;2024-01-15T11:55:44;6.90;;;6.23;;
7813;SDS011;3952;48.364;16.022;2024-01-15T11:58:14;6.90;;;6.20;;
7813;SDS011;3952;48.364;16.022;2024-01-15T12:00:43;5.93;;;5.33;;
7813;SDS011;3952;48.364;16.022;2024-01-15T12:03:12;10.93;;;6.00;;
7813;SDS011;3952;48.364;16.022;2024-01-15T12:05:40;8.80;;;6.13;;
7813;SDS011;3952;48.364;16.022;2024-01-15T12:08:08;5.77;;;5.27;;
7813;SDS011;3952;48.364;16.022;2024-01-15T12:10:36;6.50;;;5.83;;
7813;SDS011;3952;48.364;16.022;2024-01-15T12:13:07;5.83;;;5.17;;
7813;SDS011;3952;48.364;16.022;2024-01-15T12:15:38;6.17;;;5.63;;
7813;SDS011;3952;48.364;16.022;2024-01-15T12:18:07;6.30;;;5.80;;
7813;SDS011;3952;48.364;16.022;2024-01-15T12:20:36;6.07;;;5.57;;
7813;SDS011;3952;48.364;16.022;2024-01-15T12:23:04;6.27;;;5.77;;
7813;SDS011;3952;48.364;16.022;2024-01-15T12:25:32;7.67;;;5.57;;
7813;SDS011;3952;48.364;16.022;2024-01-15T12:28:00;6.47;;;5.90;;
7813;SDS011;3952;48.364;16.022;2024-01-15T12:30:28;6.10;;;5.60;;
7813;SDS011;3952;48.364;16.022;2024-01-15T12:32:56;6.30;;;5.70;;
7813;SDS011;3952;48.364;16.022;2024-01-15T12:35:24;6.10;;;5.60;;
7813;SDS011;3952;48.364;16.022;2024-01-15T12:37:54;5.40;;;4.93;;
7813;SDS011;3952;48.364;16.022;2024-01-15T12:40:22;5.77;;;5.17;;
7813;SDS011;3952;48.364;16.022;2024-01-15T12:42:50;5.70;;;5.30;;
7813;SDS011;3952;48.364;16.022;2024-01-15T12:45:17;5.63;;;5.20;;
7813;SDS011;3952;48.364;16.022;2024-01-15T12:47:45;9.57;;;6.10;;
7813;SDS011;3952;48.364;16.022;2024-01-15T12:50:13;6.27;;;5.73;;
7813;SDS011;3952;48.364;16.022;2024-01-15T12:52:40;6.17;;;5.67;;
7813;SDS011;3952;48.364;16.022;2024-01-15T12:55:09;5.77;;;5.27;;
7813;SDS011;3952;48.364;16.022;2024-01-15T12:57:37;5.90;;;5.40;;
7813;SDS011;3952;48.364;16.022;2024-01-15T13:00:05;5.83;;;5.40;;
7813;SDS011;3952;48.364;16.022;2024-01-15T13:02:37;4.97;;;4.57;;
7813;SDS011;3952;48.364;16.022;2024-01-15T13:05:05;5.77;;;5.27;;
7813;SDS011;3952;48.364;16.022;2024-01-15T13:07:34;6.17;;;5.67;;
7813;SDS011;3952;48.364;16.022;2024-01-15T13:10:02;5.67;;;5.13;;
7813;SDS011;3952;48.364;16.022;2024-01-15T13:12:33;5.30;;;4.80;;
7813;SDS011;3952;48.364;16.022;2024-01-15T13:15:00;4.87;;;4.47;;
7813;SDS011;3952;48.364;16.022;2024-01-15T13:17:29;4.90;;;4.40;;
7813;SDS011;3952;48.364;16.022;2024-01-15T13:19:56;4.90;;;4.50;;
7813;SDS011;3952;48.364;16.022;2024-01-15T13:22:23;4.73;;;4.27;;
7813;SDS011;3952;48.364;16.022;2024-01-15T13:24:55;5.17;;;4.43;;
7813;SDS011;3952;48.364;16.022;2024-01-15T13:27:22;4.63;;;4.30;;
7813;SDS011;3952;48.364;16.022;2024-01-15T13:29:51;4.50;;;4.10;;
7813;SDS011;3952;48.364;16.022;2024-01-15T13:32:20;4.10;;;3.80;;
7813;SDS011;3952;48.364;16.022;2024-01-15T13:34:50;4.37;;;3.97;;
7813;SDS011;3952;48.364;16.022;2024-01-15T13:37:18;4.00;;;3.70;;
7813;SDS011;3952;48.364;16.022;2024-01-15T13:39:46;3.47;;;3.23;;
7813;SDS011;3952;48.364;16.022;2024-01-15T13:42:13;4.00;;;3.60;;
7813;SDS011;3952;48.364;16.022;2024-01-15T13:44:40;4.60;;;4.20;;
7813;SDS011;3952;48.364;16.022;2024-01-15T13:47:12;3.93;;;3.50;;
7813;SDS011;3952;48.364;16.022;2024-01-15T13:49:39;4.43;;;4.13;;
7813;SDS011;3952;48.364;16.022;2024-01-15T13:52:06;4.07;;;3.60;;
7813;SDS011;3952;48.364;16.022;2024-01-15T13:54:34;4.10;;;3.80;;
7813;SDS011;3952;48.364;16.022;2024-01-15T13:57:01;4.33;;;3.93;;
7813;SDS011;3952;48.364;16.022;2024-01-15T13:59:28;4.07;;;3.60;;
7813;SDS011;3952;48.364;16.022;2024-01-15T14:01:58;4.13;;;3.77;;
7813;SDS011;3952;48.364;16.022;2024-01-15T14:04:26;4.03;;;3.73;;
7813;SDS011;3952;48.364;16.022;2024-01-15T14:06:55;3.80;;;3.50;;
7813;SDS011;3952;48.364;16.022;2024-01-15T14:09:22;4.13;;;3.73;;
7813;SDS011;3952;48.364;16.022;2024-01-15T14:11:50;3.90;;;3.60;;
7813;SDS011;3952;48.364;16.022;2024-01-15T14:14:18;7.83;;;3.90;;
7813;SDS011;3952;48.364;16.022;2024-01-15T14:16:45;3.80;;;3.50;;
7813;SDS011;3952;48.364;16.022;2024-01-15T14:19:12;4.20;;;3.90;;
7813;SDS011;3952;48.364;16.022;2024-01-15T14:21:41;3.70;;;3.40;;
7813;SDS011;3952;48.364;16.022;2024-01-15T14:24:09;3.63;;;3.33;;
7813;SDS011;3952;48.364;16.022;2024-01-15T14:26:36;3.87;;;3.57;;
7813;SDS011;3952;48.364;16.022;2024-01-15T14:29:03;3.60;;;3.30;;
7813;SDS011;3952;48.364;16.022;2024-01-15T14:31:31;3.70;;;3.40;;
7813;SDS011;3952;48.364;16.022;2024-01-15T14:33:59;3.10;;;2.90;;
7813;SDS011;3952;48.364;16.022;2024-01-15T14:36:28;3.27;;;2.97;;
7813;SDS011;3952;48.364;16.022;2024-01-15T14:38:56;3.00;;;2.80;;
7813;SDS011;3952;48.364;16.022;2024-01-15T14:41:24;3.50;;;3.20;;
7813;SDS011;3952;48.364;16.022;2024-01-15T14:43:51;3.43;;;3.13;;
7813;SDS011;3952;48.364;16.022;2024-01-15T14:46:18;3.60;;;3.30;;
7813;SDS011;3952;48.364;16.022;2024-01-15T14:48:46;3.47;;;3.20;;
7813;SDS011;3952;48.364;16.022;2024-01-15T14:51:14;3.30;;;3.10;;
7813;SDS011;3952;48.364;16.022;2024-01-15T14:53:42;2.80;;;2.60;;
7813;SDS011;3952;48.364;16.022;2024-01-15T14:56:11;3.07;;;2.87;;
7813;SDS011;3952;48.364;16.022;2024-01-15T14:58:38;3.20;;;2.90;;
7813;SDS011;3952;48.364;16.022;2024-01-15T15:01:06;4.13;;;2.90;;